Terminal Aerodrome Forecast
Issued by NWS

Home | Current Version | Previous Version | Text Only | Print | Product List | Glossary On
Versions: 1 2 3 4 5 6 7 8 9 10 11 12 13 14 15 16 17 18 19
000
FTUS41 KBOX 221729
TAFHYA
TAF
KHYA 221729Z 2218/2318 19007KT P6SM OVC150
     FM222100 18007KT P6SM -SHRA OVC080
     FM230400 16005KT P6SM OVC008
     FM230900 23004KT 2SM BR OVC003
     FM231000 24004KT 1SM BR OVC003
     FM231300 28007KT 1 1/2SM BR OVC008
     FM231500 33007KT P6SM SCT050=

USA.gov is the U.S. government's official web portal to all federal, state and local government web resources and services.